sensor_id;sensor_type;location;lat;lon;timestamp;temperature;humidity
60701;DHT22;46541;49.894;10.886;2023-06-24T00:00:09;17.60;99.90
60701;DHT22;46541;49.894;10.886;2023-06-24T00:02:38;17.50;99.90
60701;DHT22;46541;49.894;10.886;2023-06-24T00:05:08;17.60;99.90
60701;DHT22;46541;49.894;10.886;2023-06-24T00:07:35;17.50;99.90
60701;DHT22;46541;49.894;10.886;2023-06-24T00:10:14;17.60;99.90
60701;DHT22;46541;49.894;10.886;2023-06-24T00:12:42;17.60;99.90
60701;DHT22;46541;49.894;10.886;2023-06-24T00:15:09;17.50;99.90
60701;DHT22;46541;49.894;10.886;2023-06-24T00:17:36;17.60;99.90
60701;DHT22;46541;49.894;10.886;2023-06-24T00:20:03;17.50;99.90
60701;DHT22;46541;49.894;10.886;2023-06-24T00:22:32;17.50;99.90
60701;DHT22;46541;49.894;10.886;2023-06-24T00:24:59;17.40;99.90
60701;DHT22;46541;49.894;10.886;2023-06-24T00:27:26;17.40;99.90
60701;DHT22;46541;49.894;10.886;2023-06-24T00:29:53;17.40;99.90
60701;DHT22;46541;49.894;10.886;2023-06-24T00:32:20;17.40;99.90
60701;DHT22;46541;49.894;10.886;2023-06-24T00:34:47;17.50;99.90
60701;DHT22;46541;49.894;10.886;2023-06-24T00:37:14;17.40;99.90
60701;DHT22;46541;49.894;10.886;2023-06-24T00:39:41;17.40;99.90
60701;DHT22;46541;49.894;10.886;2023-06-24T00:42:08;17.30;99.90
60701;DHT22;46541;49.894;10.886;2023-06-24T00:44:35;17.30;99.90
60701;DHT22;46541;49.894;10.886;2023-06-24T00:47:04;17.30;99.90
60701;DHT22;46541;49.894;10.886;2023-06-24T00:49:31;17.30;99.90
60701;DHT22;46541;49.894;10.886;2023-06-24T00:51:58;17.30;99.90
60701;DHT22;46541;49.894;10.886;2023-06-24T00:54:27;17.30;99.90
60701;DHT22;46541;49.894;10.886;2023-06-24T00:56:58;17.30;99.90
60701;DHT22;46541;49.894;10.886;2023-06-24T00:59:28;17.20;99.90
60701;DHT22;46541;49.894;10.886;2023-06-24T01:01:57;17.30;99.90
60701;DHT22;46541;49.894;10.886;2023-06-24T01:04:24;17.20;99.90
60701;DHT22;46541;49.894;10.886;2023-06-24T01:06:52;17.30;99.90
60701;DHT22;46541;49.894;10.886;2023-06-24T01:09:20;17.30;99.90
60701;DHT22;46541;49.894;10.886;2023-06-24T01:11:47;17.20;99.90
60701;DHT22;46541;49.894;10.886;2023-06-24T01:14:15;17.20;99.90
60701;DHT22;46541;49.894;10.886;2023-06-24T01:16:58;17.30;99.90
60701;DHT22;46541;49.894;10.886;2023-06-24T01:25:02;17.30;99.90
60701;DHT22;46541;49.894;10.886;2023-06-24T01:30:54;17.30;99.90
60701;DHT22;46541;49.894;10.886;2023-06-24T01:33:36;17.30;99.90
60701;DHT22;46541;49.894;10.886;2023-06-24T01:36:08;17.30;99.90
60701;DHT22;46541;49.894;10.886;2023-06-24T01:38:48;17.30;99.90
60701;DHT22;46541;49.894;10.886;2023-06-24T01:41:22;17.30;99.90
60701;DHT22;46541;49.894;10.886;2023-06-24T01:43:55;17.30;99.90
60701;DHT22;46541;49.894;10.886;2023-06-24T01:46:25;17.30;99.90
60701;DHT22;46541;49.894;10.886;2023-06-24T01:48:54;17.30;99.90
60701;DHT22;46541;49.894;10.886;2023-06-24T01:51:22;17.20;99.90
60701;DHT22;46541;49.894;10.886;2023-06-24T01:53:54;17.10;99.90
60701;DHT22;46541;49.894;10.886;2023-06-24T01:56:26;17.10;99.90
60701;DHT22;46541;49.894;10.886;2023-06-24T01:58:54;17.00;99.90
60701;DHT22;46541;49.894;10.886;2023-06-24T02:01:23;17.00;99.90
60701;DHT22;46541;49.894;10.886;2023-06-24T02:03:52;16.90;99.90
60701;DHT22;46541;49.894;10.886;2023-06-24T02:06:21;16.90;99.90
60701;DHT22;46541;49.894;10.886;2023-06-24T02:08:50;16.90;99.90
60701;DHT22;46541;49.894;10.886;2023-06-24T02:11:19;16.80;99.90
60701;DHT22;46541;49.894;10.886;2023-06-24T02:13:47;16.90;99.90
60701;DHT22;46541;49.894;10.886;2023-06-24T02:16:15;16.80;99.90
60701;DHT22;46541;49.894;10.886;2023-06-24T02:18:44;16.80;99.90
60701;DHT22;46541;49.894;10.886;2023-06-24T02:21:11;16.80;99.90
60701;DHT22;46541;49.894;10.886;2023-06-24T02:23:39;16.80;99.90
60701;DHT22;46541;49.894;10.886;2023-06-24T02:26:06;16.80;99.90
60701;DHT22;46541;49.894;10.886;2023-06-24T02:28:34;16.80;99.90
60701;DHT22;46541;49.894;10.886;2023-06-24T02:31:01;16.80;99.90
60701;DHT22;46541;49.894;10.886;2023-06-24T02:33:29;16.80;99.90
60701;DHT22;46541;49.894;10.886;2023-06-24T02:35:56;16.70;99.90
60701;DHT22;46541;49.894;10.886;2023-06-24T02:38:22;16.70;99.90
60701;DHT22;46541;49.894;10.886;2023-06-24T02:40:52;16.70;99.90
60701;DHT22;46541;49.894;10.886;2023-06-24T02:43:19;16.70;99.90
60701;DHT22;46541;49.894;10.886;2023-06-24T02:45:46;16.70;99.90
60701;DHT22;46541;49.894;10.886;2023-06-24T02:48:15;16.70;99.90
60701;DHT22;46541;49.894;10.886;2023-06-24T02:50:42;16.70;99.90
60701;DHT22;46541;49.894;10.886;2023-06-24T02:53:11;16.70;99.90
60701;DHT22;46541;49.894;10.886;2023-06-24T02:55:40;16.70;99.90
60701;DHT22;46541;49.894;10.886;2023-06-24T02:58:08;16.70;99.90
60701;DHT22;46541;49.894;10.886;2023-06-24T03:00:37;16.70;99.90
60701;DHT22;46541;49.894;10.886;2023-06-24T03:03:05;16.70;99.90
60701;DHT22;46541;49.894;10.886;2023-06-24T03:05:34;16.60;99.90
60701;DHT22;46541;49.894;10.886;2023-06-24T03:08:01;16.60;99.90
60701;DHT22;46541;49.894;10.886;2023-06-24T03:10:30;16.60;99.90
60701;DHT22;46541;49.894;10.886;2023-06-24T03:12:57;16.50;99.90
60701;DHT22;46541;49.894;10.886;2023-06-24T03:15:24;16.50;99.90
60701;DHT22;46541;49.894;10.886;2023-06-24T03:17:53;16.50;99.90
60701;DHT22;46541;49.894;10.886;2023-06-24T03:20:20;16.50;99.90
60701;DHT22;46541;49.894;10.886;2023-06-24T03:22:47;16.50;99.90
60701;DHT22;46541;49.894;10.886;2023-06-24T03:25:14;16.50;99.90
60701;DHT22;46541;49.894;10.886;2023-06-24T03:27:41;16.50;99.90
60701;DHT22;46541;49.894;10.886;2023-06-24T03:30:08;16.60;99.90
60701;DHT22;46541;49.894;10.886;2023-06-24T03:32:36;16.60;99.90
60701;DHT22;46541;49.894;10.886;2023-06-24T03:35:03;16.60;99.90
60701;DHT22;46541;49.894;10.886;2023-06-24T03:37:30;16.60;99.90
60701;DHT22;46541;49.894;10.886;2023-06-24T03:39:57;16.60;99.90
60701;DHT22;46541;49.894;10.886;2023-06-24T03:42:24;16.60;99.90
60701;DHT22;46541;49.894;10.886;2023-06-24T03:44:51;16.70;99.90
60701;DHT22;46541;49.894;10.886;2023-06-24T03:47:18;16.70;99.90
60701;DHT22;46541;49.894;10.886;2023-06-24T03:49:45;16.70;99.90
60701;DHT22;46541;49.894;10.886;2023-06-24T03:52:11;16.70;99.90
60701;DHT22;46541;49.894;10.886;2023-06-24T03:54:38;16.80;99.90
60701;DHT22;46541;49.894;10.886;2023-06-24T03:57:07;16.90;99.90
60701;DHT22;46541;49.894;10.886;2023-06-24T03:59:35;16.90;99.90
60701;DHT22;46541;49.894;10.886;2023-06-24T04:02:02;17.00;99.90
60701;DHT22;46541;49.894;10.886;2023-06-24T04:04:29;16.90;99.90
60701;DHT22;46541;49.894;10.886;2023-06-24T04:06:56;16.90;99.90
60701;DHT22;46541;49.894;10.886;2023-06-24T04:09:23;16.90;99.90
60701;DHT22;46541;49.894;10.886;2023-06-24T04:11:50;16.90;99.90
60701;DHT22;46541;49.894;10.886;2023-06-24T04:14:16;16.90;99.90
60701;DHT22;46541;49.894;10.886;2023-06-24T04:16:43;16.90;99.90
60701;DHT22;46541;49.894;10.886;2023-06-24T04:19:10;16.90;99.90
60701;DHT22;46541;49.894;10.886;2023-06-24T04:21:37;16.80;99.90
60701;DHT22;46541;49.894;10.886;2023-06-24T04:24:04;16.90;99.90
60701;DHT22;46541;49.894;10.886;2023-06-24T04:26:31;16.90;99.90
60701;DHT22;46541;49.894;10.886;2023-06-24T04:28:58;16.90;99.90
60701;DHT22;46541;49.894;10.886;2023-06-24T04:31:25;16.90;99.90
60701;DHT22;46541;49.894;10.886;2023-06-24T04:33:52;16.90;99.90
60701;DHT22;46541;49.894;10.886;2023-06-24T04:36:19;17.00;99.90
60701;DHT22;46541;49.894;10.886;2023-06-24T04:38:46;17.00;99.90
60701;DHT22;46541;49.894;10.886;2023-06-24T04:41:12;17.10;99.90
60701;DHT22;46541;49.894;10.886;2023-06-24T04:43:39;17.10;99.90
60701;DHT22;46541;49.894;10.886;2023-06-24T04:46:06;17.10;99.90
60701;DHT22;46541;49.894;10.886;2023-06-24T04:48:33;17.10;99.90
60701;DHT22;46541;49.894;10.886;2023-06-24T04:51:00;17.20;99.90
60701;DHT22;46541;49.894;10.886;2023-06-24T04:53:26;17.20;99.90
60701;DHT22;46541;49.894;10.886;2023-06-24T04:55:53;17.30;99.90
60701;DHT22;46541;49.894;10.886;2023-06-24T04:58:20;17.30;99.90
60701;DHT22;46541;49.894;10.886;2023-06-24T05:00:47;17.20;99.90
60701;DHT22;46541;49.894;10.886;2023-06-24T05:03:14;17.10;99.90
60701;DHT22;46541;49.894;10.886;2023-06-24T05:05:40;17.10;99.90
60701;DHT22;46541;49.894;10.886;2023-06-24T05:08:08;17.10;99.90
60701;DHT22;46541;49.894;10.886;2023-06-24T05:10:34;17.10;99.90
60701;DHT22;46541;49.894;10.886;2023-06-24T05:13:01;17.10;99.90
60701;DHT22;46541;49.894;10.886;2023-06-24T05:15:28;17.20;99.90
60701;DHT22;46541;49.894;10.886;2023-06-24T05:17:56;17.20;99.90
60701;DHT22;46541;49.894;10.886;2023-06-24T05:20:23;17.30;99.90
60701;DHT22;46541;49.894;10.886;2023-06-24T05:22:49;17.30;99.90
60701;DHT22;46541;49.894;10.886;2023-06-24T05:25:16;17.30;99.90
60701;DHT22;46541;49.894;10.886;2023-06-24T05:27:43;17.50;99.90
60701;DHT22;46541;49.894;10.886;2023-06-24T05:30:11;17.40;99.90
60701;DHT22;46541;49.894;10.886;2023-06-24T05:32:39;17.40;99.90
60701;DHT22;46541;49.894;10.886;2023-06-24T05:35:06;17.40;99.90
60701;DHT22;46541;49.894;10.886;2023-06-24T05:37:33;17.40;99.90
60701;DHT22;46541;49.894;10.886;2023-06-24T05:40:01;17.40;99.90
60701;DHT22;46541;49.894;10.886;2023-06-24T05:42:29;17.50;99.90
60701;DHT22;46541;49.894;10.886;2023-06-24T05:44:55;17.70;99.90
60701;DHT22;46541;49.894;10.886;2023-06-24T05:47:22;17.70;99.90
60701;DHT22;46541;49.894;10.886;2023-06-24T05:49:49;17.80;99.90
60701;DHT22;46541;49.894;10.886;2023-06-24T05:52:16;17.80;99.90
60701;DHT22;46541;49.894;10.886;2023-06-24T05:54:43;17.70;99.90
60701;DHT22;46541;49.894;10.886;2023-06-24T05:57:10;17.80;99.90
60701;DHT22;46541;49.894;10.886;2023-06-24T05:59:37;17.80;99.90
60701;DHT22;46541;49.894;10.886;2023-06-24T06:02:04;17.90;99.90
60701;DHT22;46541;49.894;10.886;2023-06-24T06:04:32;18.00;99.90
60701;DHT22;46541;49.894;10.886;2023-06-24T06:06:59;18.20;99.90
60701;DHT22;46541;49.894;10.886;2023-06-24T06:09:26;18.30;99.90
60701;DHT22;46541;49.894;10.886;2023-06-24T06:11:52;18.30;99.90
60701;DHT22;46541;49.894;10.886;2023-06-24T06:14:19;18.40;99.90
60701;DHT22;46541;49.894;10.886;2023-06-24T06:16:46;18.40;99.90
60701;DHT22;46541;49.894;10.886;2023-06-24T06:19:13;18.50;99.90
60701;DHT22;46541;49.894;10.886;2023-06-24T06:21:41;18.60;99.90
60701;DHT22;46541;49.894;10.886;2023-06-24T06:24:07;18.50;99.90
60701;DHT22;46541;49.894;10.886;2023-06-24T06:26:34;18.70;99.90
60701;DHT22;46541;49.894;10.886;2023-06-24T06:29:01;18.60;99.90
60701;DHT22;46541;49.894;10.886;2023-06-24T06:31:28;18.40;99.90
60701;DHT22;46541;49.894;10.886;2023-06-24T06:33:55;18.60;99.90
60701;DHT22;46541;49.894;10.886;2023-06-24T06:36:21;18.80;99.90
60701;DHT22;46541;49.894;10.886;2023-06-24T06:38:48;19.00;99.90
60701;DHT22;46541;49.894;10.886;2023-06-24T06:41:15;19.20;99.90
60701;DHT22;46541;49.894;10.886;2023-06-24T06:43:42;19.40;99.90
60701;DHT22;46541;49.894;10.886;2023-06-24T06:46:09;19.70;99.90
60701;DHT22;46541;49.894;10.886;2023-06-24T06:48:36;19.80;99.90
60701;DHT22;46541;49.894;10.886;2023-06-24T06:51:02;19.70;99.90
60701;DHT22;46541;49.894;10.886;2023-06-24T06:53:29;19.90;99.90
60701;DHT22;46541;49.894;10.886;2023-06-24T06:55:56;19.90;99.90
60701;DHT22;46541;49.894;10.886;2023-06-24T06:58:23;20.00;99.90
60701;DHT22;46541;49.894;10.886;2023-06-24T07:00:49;20.10;99.90
60701;DHT22;46541;49.894;10.886;2023-06-24T07:03:16;20.30;99.90
60701;DHT22;46541;49.894;10.886;2023-06-24T07:05:43;20.40;99.90
60701;DHT22;46541;49.894;10.886;2023-06-24T07:08:10;20.60;99.90
60701;DHT22;46541;49.894;10.886;2023-06-24T07:10:37;20.80;99.90
60701;DHT22;46541;49.894;10.886;2023-06-24T07:13:03;21.10;99.90
60701;DHT22;46541;49.894;10.886;2023-06-24T07:15:30;21.20;99.90
60701;DHT22;46541;49.894;10.886;2023-06-24T07:17:57;21.50;99.90
60701;DHT22;46541;49.894;10.886;2023-06-24T07:20:24;21.70;99.90
60701;DHT22;46541;49.894;10.886;2023-06-24T07:22:51;21.90;99.90
60701;DHT22;46541;49.894;10.886;2023-06-24T07:25:18;22.10;99.90
60701;DHT22;46541;49.894;10.886;2023-06-24T07:27:44;22.20;99.90
60701;DHT22;46541;49.894;10.886;2023-06-24T07:30:11;22.20;99.90
60701;DHT22;46541;49.894;10.886;2023-06-24T07:32:38;22.30;99.90
60701;DHT22;46541;49.894;10.886;2023-06-24T07:35:05;22.50;99.90
60701;DHT22;46541;49.894;10.886;2023-06-24T07:37:33;22.70;99.90
60701;DHT22;46541;49.894;10.886;2023-06-24T07:40:00;22.60;99.90
60701;DHT22;46541;49.894;10.886;2023-06-24T07:42:27;22.70;99.90
60701;DHT22;46541;49.894;10.886;2023-06-24T07:44:56;22.70;99.90
60701;DHT22;46541;49.894;10.886;2023-06-24T07:47:23;22.90;99.90
60701;DHT22;46541;49.894;10.886;2023-06-24T07:49:50;23.00;99.90
60701;DHT22;46541;49.894;10.886;2023-06-24T07:52:17;23.20;99.90
60701;DHT22;46541;49.894;10.886;2023-06-24T07:54:46;23.30;99.90
60701;DHT22;46541;49.894;10.886;2023-06-24T07:57:13;23.50;99.90
60701;DHT22;46541;49.894;10.886;2023-06-24T07:59:40;23.70;99.90
60701;DHT22;46541;49.894;10.886;2023-06-24T08:02:07;23.70;99.90
60701;DHT22;46541;49.894;10.886;2023-06-24T08:04:33;23.90;99.90
60701;DHT22;46541;49.894;10.886;2023-06-24T08:07:02;24.10;99.90
60701;DHT22;46541;49.894;10.886;2023-06-24T08:09:29;24.30;99.90
60701;DHT22;46541;49.894;10.886;2023-06-24T08:11:55;24.30;99.90
60701;DHT22;46541;49.894;10.886;2023-06-24T08:14:22;24.40;99.90
60701;DHT22;46541;49.894;10.886;2023-06-24T08:16:49;24.50;99.90
60701;DHT22;46541;49.894;10.886;2023-06-24T08:19:16;24.70;99.90
60701;DHT22;46541;49.894;10.886;2023-06-24T08:21:42;24.90;99.90
60701;DHT22;46541;49.894;10.886;2023-06-24T08:24:10;25.00;99.90
60701;DHT22;46541;49.894;10.886;2023-06-24T08:26:36;25.20;99.90
60701;DHT22;46541;49.894;10.886;2023-06-24T08:29:03;25.20;99.90
60701;DHT22;46541;49.894;10.886;2023-06-24T08:31:30;25.40;99.90
60701;DHT22;46541;49.894;10.886;2023-06-24T08:33:59;25.40;99.90
60701;DHT22;46541;49.894;10.886;2023-06-24T08:36:28;25.40;99.90
60701;DHT22;46541;49.894;10.886;2023-06-24T08:38:55;25.30;99.90
60701;DHT22;46541;49.894;10.886;2023-06-24T08:41:23;25.40;99.90
60701;DHT22;46541;49.894;10.886;2023-06-24T08:43:52;25.60;99.90
60701;DHT22;46541;49.894;10.886;2023-06-24T08:46:20;25.60;99.90
60701;DHT22;46541;49.894;10.886;2023-06-24T08:48:57;25.60;99.90
60701;DHT22;46541;49.894;10.886;2023-06-24T08:51:28;25.70;99.90
60701;DHT22;46541;49.894;10.886;2023-06-24T08:53:56;25.90;99.90
60701;DHT22;46541;49.894;10.886;2023-06-24T08:56:24;26.10;98.30
60701;DHT22;46541;49.894;10.886;2023-06-24T08:58:51;26.20;97.50
60701;DHT22;46541;49.894;10.886;2023-06-24T09:01:18;26.20;95.00
60701;DHT22;46541;49.894;10.886;2023-06-24T09:03:47;26.30;94.90
60701;DHT22;46541;49.894;10.886;2023-06-24T09:06:14;26.50;92.40
60701;DHT22;46541;49.894;10.886;2023-06-24T09:08:42;26.50;93.30
60701;DHT22;46541;49.894;10.886;2023-06-24T09:11:22;26.60;93.90
60701;DHT22;46541;49.894;10.886;2023-06-24T09:13:58;26.50;93.90
60701;DHT22;46541;49.894;10.886;2023-06-24T09:16:25;26.40;94.10
60701;DHT22;46541;49.894;10.886;2023-06-24T09:18:53;26.40;94.20
60701;DHT22;46541;49.894;10.886;2023-06-24T09:21:26;26.30;93.70
60701;DHT22;46541;49.894;10.886;2023-06-24T09:23:54;26.40;94.30
60701;DHT22;46541;49.894;10.886;2023-06-24T09:26:25;26.50;95.20
60701;DHT22;46541;49.894;10.886;2023-06-24T09:28:53;26.60;95.00
60701;DHT22;46541;49.894;10.886;2023-06-24T09:31:20;26.70;94.50
60701;DHT22;46541;49.894;10.886;2023-06-24T09:33:49;26.90;94.10
60701;DHT22;46541;49.894;10.886;2023-06-24T09:36:16;27.20;94.20
60701;DHT22;46541;49.894;10.886;2023-06-24T09:38:43;27.20;94.00
60701;DHT22;46541;49.894;10.886;2023-06-24T09:41:14;27.30;93.40
60701;DHT22;46541;49.894;10.886;2023-06-24T09:43:42;27.50;92.80
60701;DHT22;46541;49.894;10.886;2023-06-24T09:46:11;27.40;92.80
60701;DHT22;46541;49.894;10.886;2023-06-24T09:48:38;27.30;92.10
60701;DHT22;46541;49.894;10.886;2023-06-24T09:51:05;27.20;92.40
60701;DHT22;46541;49.894;10.886;2023-06-24T09:53:34;27.30;92.30
60701;DHT22;46541;49.894;10.886;2023-06-24T09:56:04;27.40;91.80
60701;DHT22;46541;49.894;10.886;2023-06-24T09:58:36;27.10;91.30
60701;DHT22;46541;49.894;10.886;2023-06-24T10:01:04;27.10;91.30
60701;DHT22;46541;49.894;10.886;2023-06-24T10:03:33;27.00;91.30
60701;DHT22;46541;49.894;10.886;2023-06-24T10:06:02;26.70;91.70
60701;DHT22;46541;49.894;10.886;2023-06-24T10:08:30;26.90;91.90
60701;DHT22;46541;49.894;10.886;2023-06-24T10:11:00;27.10;91.70
60701;DHT22;46541;49.894;10.886;2023-06-24T10:13:29;27.30;92.00
60701;DHT22;46541;49.894;10.886;2023-06-24T10:15:56;27.50;92.10
60701;DHT22;46541;49.894;10.886;2023-06-24T10:18:36;27.40;91.00
60701;DHT22;46541;49.894;10.886;2023-06-24T10:21:04;27.50;91.90
60701;DHT22;46541;49.894;10.886;2023-06-24T10:37:04;27.70;91.30
60701;DHT22;46541;49.894;10.886;2023-06-24T10:42:38;27.50;90.70
60701;DHT22;46541;49.894;10.886;2023-06-24T10:47:51;27.60;90.40
60701;DHT22;46541;49.894;10.886;2023-06-24T10:50:26;27.80;90.20
60701;DHT22;46541;49.894;10.886;2023-06-24T10:52:53;27.90;90.90
60701;DHT22;46541;49.894;10.886;2023-06-24T10:55:23;28.00;90.30
60701;DHT22;46541;49.894;10.886;2023-06-24T10:57:54;28.00;89.40
60701;DHT22;46541;49.894;10.886;2023-06-24T11:00:21;28.10;88.60
60701;DHT22;46541;49.894;10.886;2023-06-24T11:02:49;28.30;87.50
60701;DHT22;46541;49.894;10.886;2023-06-24T11:05:16;28.10;87.20
60701;DHT22;46541;49.894;10.886;2023-06-24T11:07:42;28.10;85.00
60701;DHT22;46541;49.894;10.886;2023-06-24T11:10:13;28.20;87.20
60701;DHT22;46541;49.894;10.886;2023-06-24T11:12:42;28.00;85.50
60701;DHT22;46541;49.894;10.886;2023-06-24T11:15:11;28.00;87.20
60701;DHT22;46541;49.894;10.886;2023-06-24T11:17:39;28.20;85.90
60701;DHT22;46541;49.894;10.886;2023-06-24T11:20:15;28.10;85.00
60701;DHT22;46541;49.894;10.886;2023-06-24T11:22:43;28.40;86.40
60701;DHT22;46541;49.894;10.886;2023-06-24T11:25:20;28.50;83.20
60701;DHT22;46541;49.894;10.886;2023-06-24T11:27:51;28.50;85.10
60701;DHT22;46541;49.894;10.886;2023-06-24T11:30:19;28.40;83.90
60701;DHT22;46541;49.894;10.886;2023-06-24T11:32:46;28.20;83.00
60701;DHT22;46541;49.894;10.886;2023-06-24T11:35:14;27.70;79.40
60701;DHT22;46541;49.894;10.886;2023-06-24T11:37:43;27.70;80.80
60701;DHT22;46541;49.894;10.886;2023-06-24T11:40:10;27.70;80.60
60701;DHT22;46541;49.894;10.886;2023-06-24T11:42:42;27.80;79.10
60701;DHT22;46541;49.894;10.886;2023-06-24T11:45:12;27.60;79.70
60701;DHT22;46541;49.894;10.886;2023-06-24T11:47:42;27.70;82.20
60701;DHT22;46541;49.894;10.886;2023-06-24T11:50:10;27.60;79.50
60701;DHT22;46541;49.894;10.886;2023-06-24T11:52:47;27.50;81.30
60701;DHT22;46541;49.894;10.886;2023-06-24T11:55:23;27.60;78.60
60701;DHT22;46541;49.894;10.886;2023-06-24T12:00:27;27.70;79.80
60701;DHT22;46541;49.894;10.886;2023-06-24T12:03:15;27.60;79.10
60701;DHT22;46541;49.894;10.886;2023-06-24T12:05:42;27.50;76.40
60701;DHT22;46541;49.894;10.886;2023-06-24T12:08:13;27.60;77.00
60701;DHT22;46541;49.894;10.886;2023-06-24T12:10:44;27.50;76.90
60701;DHT22;46541;49.894;10.886;2023-06-24T12:13:11;27.60;77.90
60701;DHT22;46541;49.894;10.886;2023-06-24T12:15:38;27.60;77.50
60701;DHT22;46541;49.894;10.886;2023-06-24T12:18:05;27.70;77.40
60701;DHT22;46541;49.894;10.886;2023-06-24T12:20:32;27.80;79.30
60701;DHT22;46541;49.894;10.886;2023-06-24T12:23:04;27.80;75.30
60701;DHT22;46541;49.894;10.886;2023-06-24T12:25:30;27.90;76.90
60701;DHT22;46541;49.894;10.886;2023-06-24T12:27:57;27.60;74.50
60701;DHT22;46541;49.894;10.886;2023-06-24T12:30:26;27.50;72.70
60701;DHT22;46541;49.894;10.886;2023-06-24T12:32:53;27.40;74.10
60701;DHT22;46541;49.894;10.886;2023-06-24T12:35:20;27.50;73.40
60701;DHT22;46541;49.894;10.886;2023-06-24T12:37:46;27.40;75.20
60701;DHT22;46541;49.894;10.886;2023-06-24T12:40:14;27.50;75.00
60701;DHT22;46541;49.894;10.886;2023-06-24T12:42:41;27.40;76.20
60701;DHT22;46541;49.894;10.886;2023-06-24T12:45:08;27.40;73.40
60701;DHT22;46541;49.894;10.886;2023-06-24T12:47:35;27.40;73.80
60701;DHT22;46541;49.894;10.886;2023-06-24T12:50:02;27.50;73.00
60701;DHT22;46541;49.894;10.886;2023-06-24T12:52:35;27.40;75.10
60701;DHT22;46541;49.894;10.886;2023-06-24T12:55:02;27.20;74.20
60701;DHT22;46541;49.894;10.886;2023-06-24T12:57:30;27.20;73.40
60701;DHT22;46541;49.894;10.886;2023-06-24T12:59:57;27.20;72.00
60701;DHT22;46541;49.894;10.886;2023-06-24T13:02:24;27.00;68.90
60701;DHT22;46541;49.894;10.886;2023-06-24T13:04:51;27.00;67.60
60701;DHT22;46541;49.894;10.886;2023-06-24T13:07:17;27.00;69.20
60701;DHT22;46541;49.894;10.886;2023-06-24T13:09:44;27.10;72.20
60701;DHT22;46541;49.894;10.886;2023-06-24T13:12:11;27.00;70.80
60701;DHT22;46541;49.894;10.886;2023-06-24T13:14:37;27.10;73.10
60701;DHT22;46541;49.894;10.886;2023-06-24T13:17:04;27.10;71.40
60701;DHT22;46541;49.894;10.886;2023-06-24T13:19:31;27.10;71.70
60701;DHT22;46541;49.894;10.886;2023-06-24T13:21:59;27.20;73.20
60701;DHT22;46541;49.894;10.886;2023-06-24T13:24:26;27.20;72.10
60701;DHT22;46541;49.894;10.886;2023-06-24T13:26:52;27.20;70.70
60701;DHT22;46541;49.894;10.886;2023-06-24T13:29:19;27.10;68.20
60701;DHT22;46541;49.894;10.886;2023-06-24T13:31:47;27.10;69.20
60701;DHT22;46541;49.894;10.886;2023-06-24T13:34:14;27.20;68.90
60701;DHT22;46541;49.894;10.886;2023-06-24T13:36:41;27.30;69.60
60701;DHT22;46541;49.894;10.886;2023-06-24T13:39:09;28.60;65.40
60701;DHT22;46541;49.894;10.886;2023-06-24T13:41:39;33.70;58.70
60701;DHT22;46541;49.894;10.886;2023-06-24T13:44:06;37.90;51.70
60701;DHT22;46541;49.894;10.886;2023-06-24T13:46:33;40.70;44.70
60701;DHT22;46541;49.894;10.886;2023-06-24T13:49:00;41.10;43.20
60701;DHT22;46541;49.894;10.886;2023-06-24T13:51:31;43.30;40.40
60701;DHT22;46541;49.894;10.886;2023-06-24T13:53:58;45.60;38.50
60701;DHT22;46541;49.894;10.886;2023-06-24T13:56:26;47.60;36.90
60701;DHT22;46541;49.894;10.886;2023-06-24T13:58:53;48.30;34.50
60701;DHT22;46541;49.894;10.886;2023-06-24T14:01:21;46.60;34.30
60701;DHT22;46541;49.894;10.886;2023-06-24T14:03:49;43.70;36.30
60701;DHT22;46541;49.894;10.886;2023-06-24T14:06:19;43.00;36.00
60701;DHT22;46541;49.894;10.886;2023-06-24T14:08:46;44.20;35.90
60701;DHT22;46541;49.894;10.886;2023-06-24T14:11:13;43.50;36.30
60701;DHT22;46541;49.894;10.886;2023-06-24T14:13:41;41.80;37.40
60701;DHT22;46541;49.894;10.886;2023-06-24T14:16:09;40.30;37.70
60701;DHT22;46541;49.894;10.886;2023-06-24T14:18:39;38.50;38.90
60701;DHT22;46541;49.894;10.886;2023-06-24T14:21:07;36.90;39.90
60701;DHT22;46541;49.894;10.886;2023-06-24T14:23:35;35.50;41.50
60701;DHT22;46541;49.894;10.886;2023-06-24T14:26:02;34.50;43.20
60701;DHT22;46541;49.894;10.886;2023-06-24T14:28:31;33.80;43.50
60701;DHT22;46541;49.894;10.886;2023-06-24T14:30:58;32.90;44.50
60701;DHT22;46541;49.894;10.886;2023-06-24T14:33:25;32.30;44.70
60701;DHT22;46541;49.894;10.886;2023-06-24T14:35:52;31.50;45.60
60701;DHT22;46541;49.894;10.886;2023-06-24T14:38:19;30.90;45.90
60701;DHT22;46541;49.894;10.886;2023-06-24T14:40:46;30.60;47.60
60701;DHT22;46541;49.894;10.886;2023-06-24T14:43:13;30.40;47.10
60701;DHT22;46541;49.894;10.886;2023-06-24T14:45:40;30.10;47.70
60701;DHT22;46541;49.894;10.886;2023-06-24T14:48:06;29.90;49.00
60701;DHT22;46541;49.894;10.886;2023-06-24T14:50:33;29.50;47.60
60701;DHT22;46541;49.894;10.886;2023-06-24T14:53:01;29.30;49.00
60701;DHT22;46541;49.894;10.886;2023-06-24T14:55:28;29.20;49.60
60701;DHT22;46541;49.894;10.886;2023-06-24T14:57:56;29.10;49.40
60701;DHT22;46541;49.894;10.886;2023-06-24T15:00:22;29.00;50.10
60701;DHT22;46541;49.894;10.886;2023-06-24T15:02:49;28.90;49.60
60701;DHT22;46541;49.894;10.886;2023-06-24T15:05:16;28.70;50.50
60701;DHT22;46541;49.894;10.886;2023-06-24T15:07:43;28.70;51.30
60701;DHT22;46541;49.894;10.886;2023-06-24T15:10:09;28.50;51.00
60701;DHT22;46541;49.894;10.886;2023-06-24T15:12:36;28.50;50.30
60701;DHT22;46541;49.894;10.886;2023-06-24T15:15:05;28.40;50.40
60701;DHT22;46541;49.894;10.886;2023-06-24T15:17:32;28.40;51.60
60701;DHT22;46541;49.894;10.886;2023-06-24T15:20:02;28.40;51.10
60701;DHT22;46541;49.894;10.886;2023-06-24T15:22:28;28.40;51.40
60701;DHT22;46541;49.894;10.886;2023-06-24T15:24:55;28.40;52.80
60701;DHT22;46541;49.894;10.886;2023-06-24T15:27:22;28.30;51.80
60701;DHT22;46541;49.894;10.886;2023-06-24T15:29:49;28.30;50.40
60701;DHT22;46541;49.894;10.886;2023-06-24T15:32:16;28.10;50.90
60701;DHT22;46541;49.894;10.886;2023-06-24T15:34:43;28.10;51.50
60701;DHT22;46541;49.894;10.886;2023-06-24T15:37:09;28.00;52.00
60701;DHT22;46541;49.894;10.886;2023-06-24T15:39:36;28.00;51.90
60701;DHT22;46541;49.894;10.886;2023-06-24T15:42:03;28.00;52.80
60701;DHT22;46541;49.894;10.886;2023-06-24T15:44:37;27.90;52.20
60701;DHT22;46541;49.894;10.886;2023-06-24T15:47:05;27.90;51.80
60701;DHT22;46541;49.894;10.886;2023-06-24T15:49:32;27.80;51.90